Argyle, Iowa
Current Conditions -  °F | °C
As of 5:55 AM on Monday 24 Nov 2014 (Local Time) from KEOK Reporting Station
Overcast Overcast  
Wind Chill: -6°   Ceiling: 1400
Heat Index:   Visibility: 10mi
Dew Point:   Wind: 22mph
Humidity: 93%   Direction: 290°WNW
Pressure: 29.36"   Gusts: 31mph
Location:  40.53°N, 91.57°W
Report Text: KEOK 241155Z AUTO 29019G27KT 10SM OVC014 01/M00 A2936 RMK AO2
Loading
Personal Weather Stations






























Interactive Weather Map New forecast layout! Learn more

10-Day Weather Forecast

Advertisements
Track Severe Weather on mobile